sensor_id;sensor_type;location;lat;lon;timestamp;temperature;humidity
69895;DHT22;57172;52.034;5.090;2023-05-03T00:02:09;8.30;58.60
69895;DHT22;57172;52.034;5.090;2023-05-03T00:04:39;8.20;58.80
69895;DHT22;57172;52.034;5.090;2023-05-03T00:07:07;8.20;59.10
69895;DHT22;57172;52.034;5.090;2023-05-03T00:09:34;8.20;59.30
69895;DHT22;57172;52.034;5.090;2023-05-03T00:12:01;8.20;59.20
69895;DHT22;57172;52.034;5.090;2023-05-03T00:14:28;8.20;59.30
69895;DHT22;57172;52.034;5.090;2023-05-03T00:16:55;8.10;59.50
69895;DHT22;57172;52.034;5.090;2023-05-03T00:19:23;8.10;59.70
69895;DHT22;57172;52.034;5.090;2023-05-03T00:21:58;8.10;59.80
69895;DHT22;57172;52.034;5.090;2023-05-03T00:24:26;8.00;59.90
69895;DHT22;57172;52.034;5.090;2023-05-03T00:26:53;8.00;60.00
69895;DHT22;57172;52.034;5.090;2023-05-03T00:29:20;8.00;60.00
69895;DHT22;57172;52.034;5.090;2023-05-03T00:31:48;7.90;60.10
69895;DHT22;57172;52.034;5.090;2023-05-03T00:34:15;7.90;60.10
69895;DHT22;57172;52.034;5.090;2023-05-03T00:36:42;7.90;60.30
69895;DHT22;57172;52.034;5.090;2023-05-03T00:39:09;7.90;60.30
69895;DHT22;57172;52.034;5.090;2023-05-03T00:41:37;7.80;60.30
69895;DHT22;57172;52.034;5.090;2023-05-03T00:44:04;7.80;60.50
69895;DHT22;57172;52.034;5.090;2023-05-03T00:46:32;7.80;60.70
69895;DHT22;57172;52.034;5.090;2023-05-03T00:48:59;7.80;60.60
69895;DHT22;57172;52.034;5.090;2023-05-03T00:51:26;7.70;60.60
69895;DHT22;57172;52.034;5.090;2023-05-03T00:53:53;7.70;60.70
69895;DHT22;57172;52.034;5.090;2023-05-03T00:56:20;7.60;60.80
69895;DHT22;57172;52.034;5.090;2023-05-03T00:58:52;7.60;60.80
69895;DHT22;57172;52.034;5.090;2023-05-03T01:01:19;7.60;61.00
69895;DHT22;57172;52.034;5.090;2023-05-03T01:03:47;7.50;61.00
69895;DHT22;57172;52.034;5.090;2023-05-03T01:14:27;7.40;61.20
69895;DHT22;57172;52.034;5.090;2023-05-03T01:17:03;7.40;61.40
69895;DHT22;57172;52.034;5.090;2023-05-03T01:19:43;7.40;61.50
69895;DHT22;57172;52.034;5.090;2023-05-03T01:25:06;7.30;61.70
69895;DHT22;57172;52.034;5.090;2023-05-03T01:27:35;7.30;61.70
69895;DHT22;57172;52.034;5.090;2023-05-03T01:30:07;7.30;61.70
69895;DHT22;57172;52.034;5.090;2023-05-03T01:35:40;7.10;62.00
69895;DHT22;57172;52.034;5.090;2023-05-03T01:38:10;7.10;62.00
69895;DHT22;57172;52.034;5.090;2023-05-03T01:41:10;7.10;62.20
69895;DHT22;57172;52.034;5.090;2023-05-03T01:43:39;7.00;62.20
69895;DHT22;57172;52.034;5.090;2023-05-03T01:46:06;7.00;62.30
69895;DHT22;57172;52.034;5.090;2023-05-03T01:48:34;7.00;62.30
69895;DHT22;57172;52.034;5.090;2023-05-03T01:51:01;6.90;62.60
69895;DHT22;57172;52.034;5.090;2023-05-03T01:53:28;6.90;62.60
69895;DHT22;57172;52.034;5.090;2023-05-03T01:55:55;6.90;62.70
69895;DHT22;57172;52.034;5.090;2023-05-03T01:58:22;6.80;62.70
69895;DHT22;57172;52.034;5.090;2023-05-03T02:00:49;6.80;62.70
69895;DHT22;57172;52.034;5.090;2023-05-03T02:03:16;6.80;62.90
69895;DHT22;57172;52.034;5.090;2023-05-03T02:05:44;6.80;62.90
69895;DHT22;57172;52.034;5.090;2023-05-03T02:08:11;6.80;62.80
69895;DHT22;57172;52.034;5.090;2023-05-03T02:10:38;6.70;62.90
69895;DHT22;57172;52.034;5.090;2023-05-03T02:13:05;6.70;62.90
69895;DHT22;57172;52.034;5.090;2023-05-03T02:15:32;6.70;62.90
69895;DHT22;57172;52.034;5.090;2023-05-03T02:17:59;6.70;62.90
69895;DHT22;57172;52.034;5.090;2023-05-03T02:20:28;6.60;63.10
69895;DHT22;57172;52.034;5.090;2023-05-03T02:22:58;6.50;63.20
69895;DHT22;57172;52.034;5.090;2023-05-03T02:25:25;6.50;63.20
69895;DHT22;57172;52.034;5.090;2023-05-03T02:27:53;6.50;63.50
69895;DHT22;57172;52.034;5.090;2023-05-03T02:30:20;6.50;63.50
69895;DHT22;57172;52.034;5.090;2023-05-03T02:32:47;6.40;63.60
69895;DHT22;57172;52.034;5.090;2023-05-03T02:35:16;6.40;63.70
69895;DHT22;57172;52.034;5.090;2023-05-03T02:37:44;6.30;63.70
69895;DHT22;57172;52.034;5.090;2023-05-03T02:40:11;6.30;63.80
69895;DHT22;57172;52.034;5.090;2023-05-03T02:42:40;6.30;63.80
69895;DHT22;57172;52.034;5.090;2023-05-03T02:45:07;6.30;63.90
69895;DHT22;57172;52.034;5.090;2023-05-03T02:47:35;6.30;64.10
69895;DHT22;57172;52.034;5.090;2023-05-03T02:50:02;6.30;64.00
69895;DHT22;57172;52.034;5.090;2023-05-03T02:52:32;6.20;63.90
69895;DHT22;57172;52.034;5.090;2023-05-03T02:54:59;6.20;64.00
69895;DHT22;57172;52.034;5.090;2023-05-03T02:57:27;6.20;64.10
69895;DHT22;57172;52.034;5.090;2023-05-03T02:59:55;6.10;64.00
69895;DHT22;57172;52.034;5.090;2023-05-03T03:02:22;6.10;64.00
69895;DHT22;57172;52.034;5.090;2023-05-03T03:04:49;6.00;64.10
69895;DHT22;57172;52.034;5.090;2023-05-03T03:07:16;6.00;64.20
69895;DHT22;57172;52.034;5.090;2023-05-03T03:09:43;6.00;64.20
69895;DHT22;57172;52.034;5.090;2023-05-03T03:12:10;5.90;64.30
69895;DHT22;57172;52.034;5.090;2023-05-03T03:14:37;5.90;64.40
69895;DHT22;57172;52.034;5.090;2023-05-03T03:17:07;5.80;64.30
69895;DHT22;57172;52.034;5.090;2023-05-03T03:19:34;5.80;64.40
69895;DHT22;57172;52.034;5.090;2023-05-03T03:22:01;5.80;64.50
69895;DHT22;57172;52.034;5.090;2023-05-03T03:24:30;5.80;64.40
69895;DHT22;57172;52.034;5.090;2023-05-03T03:26:57;5.80;64.40
69895;DHT22;57172;52.034;5.090;2023-05-03T03:29:24;5.80;64.50
69895;DHT22;57172;52.034;5.090;2023-05-03T03:31:51;5.80;64.60
69895;DHT22;57172;52.034;5.090;2023-05-03T03:34:19;5.80;64.50
69895;DHT22;57172;52.034;5.090;2023-05-03T03:36:46;5.70;64.50
69895;DHT22;57172;52.034;5.090;2023-05-03T03:39:14;5.70;64.60
69895;DHT22;57172;52.034;5.090;2023-05-03T03:41:42;5.70;64.70
69895;DHT22;57172;52.034;5.090;2023-05-03T03:44:09;5.60;64.80
69895;DHT22;57172;52.034;5.090;2023-05-03T03:46:37;5.60;64.80
69895;DHT22;57172;52.034;5.090;2023-05-03T03:49:04;5.60;64.90
69895;DHT22;57172;52.034;5.090;2023-05-03T03:51:31;5.50;65.00
69895;DHT22;57172;52.034;5.090;2023-05-03T03:53:58;5.60;65.00
69895;DHT22;57172;52.034;5.090;2023-05-03T03:56:31;5.50;65.10
69895;DHT22;57172;52.034;5.090;2023-05-03T03:58:58;5.50;65.00
69895;DHT22;57172;52.034;5.090;2023-05-03T04:01:25;5.50;65.00
69895;DHT22;57172;52.034;5.090;2023-05-03T04:03:54;5.50;65.00
69895;DHT22;57172;52.034;5.090;2023-05-03T04:06:22;5.40;65.10
69895;DHT22;57172;52.034;5.090;2023-05-03T04:08:50;5.40;65.20
69895;DHT22;57172;52.034;5.090;2023-05-03T04:11:17;5.40;65.30
69895;DHT22;57172;52.034;5.090;2023-05-03T04:13:50;5.40;65.40
69895;DHT22;57172;52.034;5.090;2023-05-03T04:16:18;5.40;65.40
69895;DHT22;57172;52.034;5.090;2023-05-03T04:18:45;5.40;65.50
69895;DHT22;57172;52.034;5.090;2023-05-03T04:21:12;5.40;65.50
69895;DHT22;57172;52.034;5.090;2023-05-03T04:23:40;5.40;65.50
69895;DHT22;57172;52.034;5.090;2023-05-03T04:26:09;5.40;65.60
69895;DHT22;57172;52.034;5.090;2023-05-03T04:28:56;5.40;65.60
69895;DHT22;57172;52.034;5.090;2023-05-03T04:31:24;5.40;65.70
69895;DHT22;57172;52.034;5.090;2023-05-03T04:33:53;5.40;65.90
69895;DHT22;57172;52.034;5.090;2023-05-03T04:36:20;5.40;65.90
69895;DHT22;57172;52.034;5.090;2023-05-03T04:38:52;5.40;66.00
69895;DHT22;57172;52.034;5.090;2023-05-03T04:41:19;5.40;66.20
69895;DHT22;57172;52.034;5.090;2023-05-03T04:43:46;5.50;66.20
69895;DHT22;57172;52.034;5.090;2023-05-03T04:46:14;5.50;66.10
69895;DHT22;57172;52.034;5.090;2023-05-03T04:48:44;5.50;66.20
69895;DHT22;57172;52.034;5.090;2023-05-03T04:51:11;5.50;66.20
69895;DHT22;57172;52.034;5.090;2023-05-03T04:53:39;5.50;66.20
69895;DHT22;57172;52.034;5.090;2023-05-03T04:56:11;5.50;66.30
69895;DHT22;57172;52.034;5.090;2023-05-03T04:58:39;5.50;66.30
69895;DHT22;57172;52.034;5.090;2023-05-03T05:01:07;5.50;66.30
69895;DHT22;57172;52.034;5.090;2023-05-03T05:03:34;5.50;66.30
69895;DHT22;57172;52.034;5.090;2023-05-03T05:06:07;5.50;66.30
69895;DHT22;57172;52.034;5.090;2023-05-03T05:08:37;5.60;66.30
69895;DHT22;57172;52.034;5.090;2023-05-03T05:11:07;5.60;66.40
69895;DHT22;57172;52.034;5.090;2023-05-03T05:13:34;5.60;66.40
69895;DHT22;57172;52.034;5.090;2023-05-03T05:16:01;5.60;66.40
69895;DHT22;57172;52.034;5.090;2023-05-03T05:18:30;5.70;66.40
69895;DHT22;57172;52.034;5.090;2023-05-03T05:21:00;5.70;66.50
69895;DHT22;57172;52.034;5.090;2023-05-03T05:23:28;5.80;66.40
69895;DHT22;57172;52.034;5.090;2023-05-03T05:25:55;5.80;66.30
69895;DHT22;57172;52.034;5.090;2023-05-03T05:28:29;5.90;66.20
69895;DHT22;57172;52.034;5.090;2023-05-03T05:30:55;5.90;66.10
69895;DHT22;57172;52.034;5.090;2023-05-03T05:33:23;6.00;66.10
69895;DHT22;57172;52.034;5.090;2023-05-03T05:35:51;6.10;65.90
69895;DHT22;57172;52.034;5.090;2023-05-03T05:38:20;6.20;65.80
69895;DHT22;57172;52.034;5.090;2023-05-03T05:40:49;6.20;65.70
69895;DHT22;57172;52.034;5.090;2023-05-03T05:43:16;6.30;65.60
69895;DHT22;57172;52.034;5.090;2023-05-03T05:45:45;6.40;65.40
69895;DHT22;57172;52.034;5.090;2023-05-03T05:48:12;6.40;65.20
69895;DHT22;57172;52.034;5.090;2023-05-03T05:50:40;6.50;65.00
69895;DHT22;57172;52.034;5.090;2023-05-03T05:53:09;6.50;65.00
69895;DHT22;57172;52.034;5.090;2023-05-03T05:55:41;6.60;64.80
69895;DHT22;57172;52.034;5.090;2023-05-03T05:58:08;6.70;64.80
69895;DHT22;57172;52.034;5.090;2023-05-03T06:00:42;6.80;64.70
69895;DHT22;57172;52.034;5.090;2023-05-03T06:03:10;6.80;64.40
69895;DHT22;57172;52.034;5.090;2023-05-03T06:05:37;6.90;64.10
69895;DHT22;57172;52.034;5.090;2023-05-03T06:08:07;6.90;63.80
69895;DHT22;57172;52.034;5.090;2023-05-03T06:10:34;7.00;63.90
69895;DHT22;57172;52.034;5.090;2023-05-03T06:13:02;7.10;63.80
69895;DHT22;57172;52.034;5.090;2023-05-03T06:15:29;7.10;63.70
69895;DHT22;57172;52.034;5.090;2023-05-03T06:17:57;7.20;63.70
69895;DHT22;57172;52.034;5.090;2023-05-03T06:20:24;7.30;63.60
69895;DHT22;57172;52.034;5.090;2023-05-03T06:22:52;7.40;63.50
69895;DHT22;57172;52.034;5.090;2023-05-03T06:25:20;7.50;63.30
69895;DHT22;57172;52.034;5.090;2023-05-03T06:27:48;7.60;63.20
69895;DHT22;57172;52.034;5.090;2023-05-03T06:30:18;7.60;63.20
69895;DHT22;57172;52.034;5.090;2023-05-03T06:32:47;7.70;62.80
69895;DHT22;57172;52.034;5.090;2023-05-03T06:35:14;7.70;62.50
69895;DHT22;57172;52.034;5.090;2023-05-03T06:37:41;7.80;62.70
69895;DHT22;57172;52.034;5.090;2023-05-03T06:40:09;7.90;62.50
69895;DHT22;57172;52.034;5.090;2023-05-03T06:42:36;8.00;62.30
69895;DHT22;57172;52.034;5.090;2023-05-03T06:45:13;8.00;61.90
69895;DHT22;57172;52.034;5.090;2023-05-03T06:47:40;8.10;61.80
69895;DHT22;57172;52.034;5.090;2023-05-03T06:50:09;8.20;61.70
69895;DHT22;57172;52.034;5.090;2023-05-03T06:52:36;8.20;61.10
69895;DHT22;57172;52.034;5.090;2023-05-03T06:55:04;8.30;60.80
69895;DHT22;57172;52.034;5.090;2023-05-03T06:57:31;8.30;60.90
69895;DHT22;57172;52.034;5.090;2023-05-03T06:59:58;8.40;61.00
69895;DHT22;57172;52.034;5.090;2023-05-03T07:02:24;8.60;60.70
69895;DHT22;57172;52.034;5.090;2023-05-03T07:04:52;8.70;60.50
69895;DHT22;57172;52.034;5.090;2023-05-03T07:07:19;8.80;60.30
69895;DHT22;57172;52.034;5.090;2023-05-03T07:09:47;8.80;59.90
69895;DHT22;57172;52.034;5.090;2023-05-03T07:12:14;8.90;59.00
69895;DHT22;57172;52.034;5.090;2023-05-03T07:14:42;9.00;59.10
69895;DHT22;57172;52.034;5.090;2023-05-03T07:17:09;9.10;58.30
69895;DHT22;57172;52.034;5.090;2023-05-03T07:19:37;9.10;58.40
69895;DHT22;57172;52.034;5.090;2023-05-03T07:22:05;9.30;58.40
69895;DHT22;57172;52.034;5.090;2023-05-03T07:24:32;9.40;57.40
69895;DHT22;57172;52.034;5.090;2023-05-03T07:26:58;9.40;57.00
69895;DHT22;57172;52.034;5.090;2023-05-03T07:29:25;9.50;56.50
69895;DHT22;57172;52.034;5.090;2023-05-03T07:31:53;9.60;56.40
69895;DHT22;57172;52.034;5.090;2023-05-03T07:34:20;9.70;56.50
69895;DHT22;57172;52.034;5.090;2023-05-03T07:36:47;9.80;56.60
69895;DHT22;57172;52.034;5.090;2023-05-03T07:39:14;9.80;55.70
69895;DHT22;57172;52.034;5.090;2023-05-03T07:41:41;9.90;55.80
69895;DHT22;57172;52.034;5.090;2023-05-03T07:44:08;10.00;55.90
69895;DHT22;57172;52.034;5.090;2023-05-03T07:46:35;10.20;55.80
69895;DHT22;57172;52.034;5.090;2023-05-03T07:49:03;10.30;55.30
69895;DHT22;57172;52.034;5.090;2023-05-03T07:51:35;10.40;55.30
69895;DHT22;57172;52.034;5.090;2023-05-03T07:54:02;10.50;55.10
69895;DHT22;57172;52.034;5.090;2023-05-03T07:56:29;10.60;54.90
69895;DHT22;57172;52.034;5.090;2023-05-03T07:58:56;10.70;54.50
69895;DHT22;57172;52.034;5.090;2023-05-03T08:01:36;10.80;54.40
69895;DHT22;57172;52.034;5.090;2023-05-03T08:04:03;11.00;54.20
69895;DHT22;57172;52.034;5.090;2023-05-03T08:06:35;11.10;54.10
69895;DHT22;57172;52.034;5.090;2023-05-03T08:09:07;11.20;53.20
69895;DHT22;57172;52.034;5.090;2023-05-03T08:11:34;11.20;53.40
69895;DHT22;57172;52.034;5.090;2023-05-03T08:14:01;11.40;54.00
69895;DHT22;57172;52.034;5.090;2023-05-03T08:16:28;11.70;54.90
69895;DHT22;57172;52.034;5.090;2023-05-03T08:18:55;12.30;56.00
69895;DHT22;57172;52.034;5.090;2023-05-03T08:21:22;13.00;55.30
69895;DHT22;57172;52.034;5.090;2023-05-03T08:23:50;13.70;55.00
69895;DHT22;57172;52.034;5.090;2023-05-03T08:26:17;14.50;52.80
69895;DHT22;57172;52.034;5.090;2023-05-03T08:28:44;15.10;51.90
69895;DHT22;57172;52.034;5.090;2023-05-03T08:31:11;15.70;49.80
69895;DHT22;57172;52.034;5.090;2023-05-03T08:33:38;16.40;48.30
69895;DHT22;57172;52.034;5.090;2023-05-03T08:36:05;17.00;47.80
69895;DHT22;57172;52.034;5.090;2023-05-03T08:38:33;17.60;46.60
69895;DHT22;57172;52.034;5.090;2023-05-03T08:41:07;18.20;46.10
69895;DHT22;57172;52.034;5.090;2023-05-03T08:43:43;18.90;44.00
69895;DHT22;57172;52.034;5.090;2023-05-03T08:46:11;19.30;42.00
69895;DHT22;57172;52.034;5.090;2023-05-03T08:48:39;19.50;41.30
69895;DHT22;57172;52.034;5.090;2023-05-03T08:51:08;19.50;40.80
69895;DHT22;57172;52.034;5.090;2023-05-03T08:53:36;19.70;40.90
69895;DHT22;57172;52.034;5.090;2023-05-03T08:56:08;20.30;40.60
69895;DHT22;57172;52.034;5.090;2023-05-03T08:58:35;20.90;39.10
69895;DHT22;57172;52.034;5.090;2023-05-03T09:01:07;21.30;37.90
69895;DHT22;57172;52.034;5.090;2023-05-03T09:03:35;21.60;37.20
69895;DHT22;57172;52.034;5.090;2023-05-03T09:06:18;22.00;37.10
69895;DHT22;57172;52.034;5.090;2023-05-03T09:08:46;22.40;36.40
69895;DHT22;57172;52.034;5.090;2023-05-03T09:11:23;22.70;36.30
69895;DHT22;57172;52.034;5.090;2023-05-03T09:13:51;23.10;34.80
69895;DHT22;57172;52.034;5.090;2023-05-03T09:16:25;23.20;34.70
69895;DHT22;57172;52.034;5.090;2023-05-03T09:18:57;23.40;34.50
69895;DHT22;57172;52.034;5.090;2023-05-03T09:21:24;23.70;33.90
69895;DHT22;57172;52.034;5.090;2023-05-03T09:23:51;23.80;33.70
69895;DHT22;57172;52.034;5.090;2023-05-03T09:26:34;23.70;32.90
69895;DHT22;57172;52.034;5.090;2023-05-03T09:29:06;23.20;32.10
69895;DHT22;57172;52.034;5.090;2023-05-03T09:31:35;22.90;33.20
69895;DHT22;57172;52.034;5.090;2023-05-03T09:34:20;23.00;33.30
69895;DHT22;57172;52.034;5.090;2023-05-03T09:36:48;23.20;32.90
69895;DHT22;57172;52.034;5.090;2023-05-03T09:39:16;23.50;33.50
69895;DHT22;57172;52.034;5.090;2023-05-03T09:41:43;24.10;33.40
69895;DHT22;57172;52.034;5.090;2023-05-03T09:44:10;24.70;32.00
69895;DHT22;57172;52.034;5.090;2023-05-03T09:46:38;24.90;32.10
69895;DHT22;57172;52.034;5.090;2023-05-03T09:49:05;25.40;31.70
69895;DHT22;57172;52.034;5.090;2023-05-03T09:51:32;25.80;31.00
69895;DHT22;57172;52.034;5.090;2023-05-03T09:54:00;25.90;30.70
69895;DHT22;57172;52.034;5.090;2023-05-03T09:56:29;26.20;30.90
69895;DHT22;57172;52.034;5.090;2023-05-03T09:58:56;26.60;29.90
69895;DHT22;57172;52.034;5.090;2023-05-03T10:01:24;26.70;30.00
69895;DHT22;57172;52.034;5.090;2023-05-03T10:03:55;27.10;29.10
69895;DHT22;57172;52.034;5.090;2023-05-03T10:11:27;27.60;28.30
69895;DHT22;57172;52.034;5.090;2023-05-03T10:13:55;27.90;28.30
69895;DHT22;57172;52.034;5.090;2023-05-03T10:16:49;28.20;27.80
69895;DHT22;57172;52.034;5.090;2023-05-03T10:19:22;28.60;27.20
69895;DHT22;57172;52.034;5.090;2023-05-03T10:22:09;28.80;26.80
69895;DHT22;57172;52.034;5.090;2023-05-03T10:32:55;28.80;27.10
69895;DHT22;57172;52.034;5.090;2023-05-03T10:35:26;29.30;26.40
69895;DHT22;57172;52.034;5.090;2023-05-03T10:37:54;29.30;25.60
69895;DHT22;57172;52.034;5.090;2023-05-03T10:40:40;29.20;26.20
69895;DHT22;57172;52.034;5.090;2023-05-03T10:46:02;29.20;26.20
69895;DHT22;57172;52.034;5.090;2023-05-03T10:48:30;29.30;26.00
69895;DHT22;57172;52.034;5.090;2023-05-03T10:53:55;29.30;25.70
69895;DHT22;57172;52.034;5.090;2023-05-03T10:56:22;29.40;25.90
69895;DHT22;57172;52.034;5.090;2023-05-03T10:58:50;29.60;26.30
69895;DHT22;57172;52.034;5.090;2023-05-03T11:01:22;29.90;26.00
69895;DHT22;57172;52.034;5.090;2023-05-03T11:06:38;30.30;25.30
69895;DHT22;57172;52.034;5.090;2023-05-03T11:09:08;30.40;25.10
69895;DHT22;57172;52.034;5.090;2023-05-03T11:11:37;30.40;25.30
69895;DHT22;57172;52.034;5.090;2023-05-03T11:14:05;30.50;24.80
69895;DHT22;57172;52.034;5.090;2023-05-03T11:16:34;30.20;25.30
69895;DHT22;57172;52.034;5.090;2023-05-03T11:19:07;30.30;25.50
69895;DHT22;57172;52.034;5.090;2023-05-03T11:21:35;30.50;25.50
69895;DHT22;57172;52.034;5.090;2023-05-03T11:24:02;30.60;24.60
69895;DHT22;57172;52.034;5.090;2023-05-03T11:26:35;30.30;25.00
69895;DHT22;57172;52.034;5.090;2023-05-03T11:29:01;30.40;25.30
69895;DHT22;57172;52.034;5.090;2023-05-03T11:31:29;30.50;24.90
69895;DHT22;57172;52.034;5.090;2023-05-03T11:33:56;30.80;24.90
69895;DHT22;57172;52.034;5.090;2023-05-03T11:36:23;31.10;24.80
69895;DHT22;57172;52.034;5.090;2023-05-03T11:38:50;31.10;24.40
69895;DHT22;57172;52.034;5.090;2023-05-03T11:41:17;31.10;24.80
69895;DHT22;57172;52.034;5.090;2023-05-03T11:43:48;31.30;24.40
69895;DHT22;57172;52.034;5.090;2023-05-03T11:46:27;31.00;23.90
69895;DHT22;57172;52.034;5.090;2023-05-03T11:48:57;30.60;24.20
69895;DHT22;57172;52.034;5.090;2023-05-03T11:51:24;30.50;24.70
69895;DHT22;57172;52.034;5.090;2023-05-03T11:53:57;30.60;24.50
69895;DHT22;57172;52.034;5.090;2023-05-03T11:56:27;30.60;24.20
69895;DHT22;57172;52.034;5.090;2023-05-03T11:58:55;30.50;24.40
69895;DHT22;57172;52.034;5.090;2023-05-03T12:01:27;30.30;24.20
69895;DHT22;57172;52.034;5.090;2023-05-03T12:04:02;30.10;24.60
69895;DHT22;57172;52.034;5.090;2023-05-03T12:06:32;30.20;24.10
69895;DHT22;57172;52.034;5.090;2023-05-03T12:09:02;30.00;24.60
69895;DHT22;57172;52.034;5.090;2023-05-03T12:11:41;30.10;25.00
69895;DHT22;57172;52.034;5.090;2023-05-03T12:14:10;30.40;24.50
69895;DHT22;57172;52.034;5.090;2023-05-03T12:16:50;30.50;24.10
69895;DHT22;57172;52.034;5.090;2023-05-03T12:19:25;30.40;23.80
69895;DHT22;57172;52.034;5.090;2023-05-03T12:21:56;30.20;24.60
69895;DHT22;57172;52.034;5.090;2023-05-03T12:24:43;30.20;24.60
69895;DHT22;57172;52.034;5.090;2023-05-03T12:27:11;30.20;24.30
69895;DHT22;57172;52.034;5.090;2023-05-03T12:29:40;30.20;24.70
69895;DHT22;57172;52.034;5.090;2023-05-03T12:32:07;30.60;24.40
69895;DHT22;57172;52.034;5.090;2023-05-03T12:34:35;30.60;24.60
69895;DHT22;57172;52.034;5.090;2023-05-03T12:37:07;30.70;24.40
69895;DHT22;57172;52.034;5.090;2023-05-03T12:39:38;30.80;24.00
69895;DHT22;57172;52.034;5.090;2023-05-03T12:42:06;31.00;23.80
69895;DHT22;57172;52.034;5.090;2023-05-03T12:44:38;31.10;23.50
69895;DHT22;57172;52.034;5.090;2023-05-03T12:47:09;31.00;23.00
69895;DHT22;57172;52.034;5.090;2023-05-03T12:49:37;30.70;23.20
69895;DHT22;57172;52.034;5.090;2023-05-03T12:52:05;30.50;23.50
69895;DHT22;57172;52.034;5.090;2023-05-03T12:54:35;30.50;23.70
69895;DHT22;57172;52.034;5.090;2023-05-03T12:57:07;30.70;24.10
69895;DHT22;57172;52.034;5.090;2023-05-03T12:59:41;30.90;24.30
69895;DHT22;57172;52.034;5.090;2023-05-03T13:02:11;31.20;23.90
69895;DHT22;57172;52.034;5.090;2023-05-03T13:04:45;31.20;24.00
69895;DHT22;57172;52.034;5.090;2023-05-03T13:07:15;31.20;22.90
69895;DHT22;57172;52.034;5.090;2023-05-03T13:09:47;30.90;23.10
69895;DHT22;57172;52.034;5.090;2023-05-03T13:12:17;30.60;23.00
69895;DHT22;57172;52.034;5.090;2023-05-03T13:14:52;30.30;23.80
69895;DHT22;57172;52.034;5.090;2023-05-03T13:17:20;30.30;23.70
69895;DHT22;57172;52.034;5.090;2023-05-03T13:19:49;30.50;23.70
69895;DHT22;57172;52.034;5.090;2023-05-03T13:22:17;30.70;23.20
69895;DHT22;57172;52.034;5.090;2023-05-03T13:24:45;30.80;23.30
69895;DHT22;57172;52.034;5.090;2023-05-03T13:27:13;30.90;23.70
69895;DHT22;57172;52.034;5.090;2023-05-03T13:29:40;31.10;23.70
69895;DHT22;57172;52.034;5.090;2023-05-03T13:32:07;31.30;23.00
69895;DHT22;57172;52.034;5.090;2023-05-03T13:34:35;31.40;23.10
69895;DHT22;57172;52.034;5.090;2023-05-03T13:37:02;31.30;23.00
69895;DHT22;57172;52.034;5.090;2023-05-03T13:39:32;31.30;23.00
69895;DHT22;57172;52.034;5.090;2023-05-03T13:41:59;31.40;22.90
69895;DHT22;57172;52.034;5.090;2023-05-03T13:44:26;31.30;23.10
69895;DHT22;57172;52.034;5.090;2023-05-03T13:46:53;31.30;23.00
69895;DHT22;57172;52.034;5.090;2023-05-03T13:49:21;31.30;23.30
69895;DHT22;57172;52.034;5.090;2023-05-03T13:51:48;31.40;22.40
69895;DHT22;57172;52.034;5.090;2023-05-03T13:54:15;31.20;22.50
69895;DHT22;57172;52.034;5.090;2023-05-03T13:56:42;31.00;23.00
69895;DHT22;57172;52.034;5.090;2023-05-03T13:59:11;31.00;23.00
69895;DHT22;57172;52.034;5.090;2023-05-03T14:01:40;31.20;22.80
69895;DHT22;57172;52.034;5.090;2023-05-03T14:04:09;31.40;23.00
69895;DHT22;57172;52.034;5.090;2023-05-03T14:06:36;31.30;22.60
69895;DHT22;57172;52.034;5.090;2023-05-03T14:09:06;31.20;22.60
69895;DHT22;57172;52.034;5.090;2023-05-03T14:11:33;30.90;23.00
69895;DHT22;57172;52.034;5.090;2023-05-03T14:14:00;30.80;23.30
69895;DHT22;57172;52.034;5.090;2023-05-03T14:16:27;30.80;23.90
69895;DHT22;57172;52.034;5.090;2023-05-03T14:18:57;31.00;23.90
69895;DHT22;57172;52.034;5.090;2023-05-03T14:21:24;31.20;23.50
69895;DHT22;57172;52.034;5.090;2023-05-03T14:23:51;31.10;23.20
69895;DHT22;57172;52.034;5.090;2023-05-03T14:26:22;31.00;23.40
69895;DHT22;57172;52.034;5.090;2023-05-03T14:28:49;30.90;23.30
69895;DHT22;57172;52.034;5.090;2023-05-03T14:31:16;30.70;23.00
69895;DHT22;57172;52.034;5.090;2023-05-03T14:33:43;30.30;23.20
69895;DHT22;57172;52.034;5.090;2023-05-03T14:36:10;30.00;23.80
69895;DHT22;57172;52.034;5.090;2023-05-03T14:38:37;30.00;24.20
69895;DHT22;57172;52.034;5.090;2023-05-03T14:41:04;30.10;23.60
69895;DHT22;57172;52.034;5.090;2023-05-03T14:43:31;29.90;23.70
69895;DHT22;57172;52.034;5.090;2023-05-03T14:45:58;29.70;23.80
69895;DHT22;57172;52.034;5.090;2023-05-03T14:48:25;29.50;24.00
69895;DHT22;57172;52.034;5.090;2023-05-03T14:50:52;29.50;24.00
69895;DHT22;57172;52.034;5.090;2023-05-03T14:53:19;29.40;24.10
69895;DHT22;57172;52.034;5.090;2023-05-03T14:55:48;29.30;24.20
69895;DHT22;57172;52.034;5.090;2023-05-03T14:58:15;29.20;24.40
69895;DHT22;57172;52.034;5.090;2023-05-03T15:00:42;29.10;24.30
69895;DHT22;57172;52.034;5.090;2023-05-03T15:03:10;29.00;24.50
69895;DHT22;57172;52.034;5.090;2023-05-03T15:05:48;28.60;24.10
69895;DHT22;57172;52.034;5.090;2023-05-03T15:08:17;28.20;24.70
69895;DHT22;57172;52.034;5.090;2023-05-03T15:10:45;28.20;25.00
69895;DHT22;57172;52.034;5.090;2023-05-03T15:13:13;28.40;25.10
69895;DHT22;57172;52.034;5.090;2023-05-03T15:15:40;28.40;25.00
69895;DHT22;57172;52.034;5.090;2023-05-03T15:18:11;28.20;24.70
69895;DHT22;57172;52.034;5.090;2023-05-03T15:20:40;27.90;25.30
69895;DHT22;57172;52.034;5.090;2023-05-03T15:23:07;27.80;25.30
69895;DHT22;57172;52.034;5.090;2023-05-03T15:25:34;27.80;25.60
69895;DHT22;57172;52.034;5.090;2023-05-03T15:28:01;27.90;25.40
69895;DHT22;57172;52.034;5.090;2023-05-03T15:30:31;27.80;25.30
69895;DHT22;57172;52.034;5.090;2023-05-03T15:32:58;27.80;25.40
69895;DHT22;57172;52.034;5.090;2023-05-03T15:35:26;27.90;25.50
69895;DHT22;57172;52.034;5.090;2023-05-03T15:37:53;27.90;24.90
69895;DHT22;57172;52.034;5.090;2023-05-03T15:40:20;27.50;25.40
69895;DHT22;57172;52.034;5.090;2023-05-03T15:42:50;27.20;25.70
69895;DHT22;57172;52.034;5.090;2023-05-03T15:45:18;27.10;25.70
69895;DHT22;57172;52.034;5.090;2023-05-03T15:47:45;26.90;26.00
69895;DHT22;57172;52.034;5.090;2023-05-03T15:50:12;26.90;26.00
69895;DHT22;57172;52.034;5.090;2023-05-03T15:52:39;26.90;26.00
69895;DHT22;57172;52.034;5.090;2023-05-03T15:55:08;26.90;25.90
69895;DHT22;57172;52.034;5.090;2023-05-03T15:57:35;26.90;26.30
69895;DHT22;57172;52.034;5.090;2023-05-03T16:00:04;26.80;26.10
69895;DHT22;57172;52.034;5.090;2023-05-03T16:02:38;26.60;26.20
69895;DHT22;57172;52.034;5.090;2023-05-03T16:05:06;26.50;26.40
69895;DHT22;57172;52.034;5.090;2023-05-03T16:07:33;26.40;26.60
69895;DHT22;57172;52.034;5.090;2023-05-03T16:10:00;26.40;26.80
69895;DHT22;57172;52.034;5.090;2023-05-03T16:12:27;26.30;26.80
69895;DHT22;57172;52.034;5.090;2023-05-03T16:14:54;26.20;26.80
69895;DHT22;57172;52.034;5.090;2023-05-03T16:17:21;26.20;27.00
69895;DHT22;57172;52.034;5.090;2023-05-03T16:19:48;26.20;27.20
69895;DHT22;57172;52.034;5.090;2023-05-03T16:22:15;26.40;26.90
69895;DHT22;57172;52.034;5.090;2023-05-03T16:24:43;26.40;26.60